sensor_id;sensor_type;location;lat;lon;timestamp;pressure;altitude;pressure_sealevel;temperature;humidity
65718;BME280;52445;52.466;-1.016;2024-03-02T00:01:34;97654.34;;;3.30;79.86
65718;BME280;52445;52.466;-1.016;2024-03-02T00:04:04;97663.78;;;3.25;80.61
65718;BME280;52445;52.466;-1.016;2024-03-02T00:06:33;97658.75;;;3.19;80.96
65718;BME280;52445;52.466;-1.016;2024-03-02T00:09:00;97656.16;;;3.20;80.32
65718;BME280;52445;52.466;-1.016;2024-03-02T00:11:28;97658.84;;;3.11;80.28
65718;BME280;52445;52.466;-1.016;2024-03-02T00:13:55;97656.31;;;3.06;79.80
65718;BME280;52445;52.466;-1.016;2024-03-02T00:16:22;97659.78;;;3.01;79.29
65718;BME280;52445;52.466;-1.016;2024-03-02T00:18:50;97655.56;;;2.98;79.48
65718;BME280;52445;52.466;-1.016;2024-03-02T00:21:18;97649.63;;;2.93;80.23
65718;BME280;52445;52.466;-1.016;2024-03-02T00:23:48;97653.91;;;2.94;80.07
65718;BME280;52445;52.466;-1.016;2024-03-02T00:26:16;97651.28;;;2.99;80.33
65718;BME280;52445;52.466;-1.016;2024-03-02T00:28:43;97654.66;;;3.02;80.67
65718;BME280;52445;52.466;-1.016;2024-03-02T00:31:12;97657.19;;;3.05;80.80
65718;BME280;52445;52.466;-1.016;2024-03-02T00:33:45;97655.44;;;3.11;80.44
65718;BME280;52445;52.466;-1.016;2024-03-02T00:36:14;97653.66;;;3.16;80.09
65718;BME280;52445;52.466;-1.016;2024-03-02T00:38:51;97655.41;;;3.12;80.88
65718;BME280;52445;52.466;-1.016;2024-03-02T00:41:34;97660.44;;;3.17;80.95
65718;BME280;52445;52.466;-1.016;2024-03-02T00:44:03;97651.09;;;3.16;80.18
65718;BME280;52445;52.466;-1.016;2024-03-02T00:46:36;97662.13;;;3.21;80.24
65718;BME280;52445;52.466;-1.016;2024-03-02T00:49:05;97665.50;;;3.23;80.06
65718;BME280;52445;52.466;-1.016;2024-03-02T00:51:33;97662.94;;;3.25;80.11
65718;BME280;52445;52.466;-1.016;2024-03-02T00:54:04;97661.22;;;3.27;80.36
65718;BME280;52445;52.466;-1.016;2024-03-02T00:56:32;97666.34;;;3.27;79.56
65718;BME280;52445;52.466;-1.016;2024-03-02T00:58:59;97663.72;;;3.28;79.72
65718;BME280;52445;52.466;-1.016;2024-03-02T01:01:25;97650.94;;;3.30;79.88
65718;BME280;52445;52.466;-1.016;2024-03-02T01:03:53;97650.09;;;3.29;79.57
65718;BME280;52445;52.466;-1.016;2024-03-02T01:06:20;97652.66;;;3.29;79.81
65718;BME280;52445;52.466;-1.016;2024-03-02T01:08:49;97656.97;;;3.24;79.90
65718;BME280;52445;52.466;-1.016;2024-03-02T01:11:20;97647.56;;;3.28;79.91
65718;BME280;52445;52.466;-1.016;2024-03-02T01:13:52;97664.59;;;3.29;80.00
65718;BME280;52445;52.466;-1.016;2024-03-02T01:16:19;97660.38;;;3.26;79.89
65718;BME280;52445;52.466;-1.016;2024-03-02T01:18:47;97659.53;;;3.24;79.89
65718;BME280;52445;52.466;-1.016;2024-03-02T01:21:18;97639.13;;;3.21;80.17
65718;BME280;52445;52.466;-1.016;2024-03-02T01:23:45;97638.25;;;3.22;79.70
65718;BME280;52445;52.466;-1.016;2024-03-02T01:26:13;97655.28;;;3.23;79.86
65718;BME280;52445;52.466;-1.016;2024-03-02T01:28:41;97655.41;;;3.14;80.01
65718;BME280;52445;52.466;-1.016;2024-03-02T01:31:10;97650.28;;;3.14;80.00
65718;BME280;52445;52.466;-1.016;2024-03-02T01:33:39;97657.22;;;3.02;81.03
65718;BME280;52445;52.466;-1.016;2024-03-02T01:36:06;97658.06;;;3.01;80.93
65718;BME280;52445;52.466;-1.016;2024-03-02T01:38:35;97645.34;;;2.98;80.86
65718;BME280;52445;52.466;-1.016;2024-03-02T01:41:03;97644.47;;;2.99;80.21
65718;BME280;52445;52.466;-1.016;2024-03-02T01:43:30;97645.34;;;2.98;80.36
65718;BME280;52445;52.466;-1.016;2024-03-02T01:45:58;97642.81;;;2.95;80.45
65718;BME280;52445;52.466;-1.016;2024-03-02T01:48:25;97638.56;;;2.92;81.58
65718;BME280;52445;52.466;-1.016;2024-03-02T01:50:53;97645.38;;;2.92;80.87
65718;BME280;52445;52.466;-1.016;2024-03-02T01:53:20;97645.44;;;2.86;81.56
65718;BME280;52445;52.466;-1.016;2024-03-02T01:55:46;97649.81;;;2.76;81.50
65718;BME280;52445;52.466;-1.016;2024-03-02T01:58:13;97645.59;;;2.70;82.31
65718;BME280;52445;52.466;-1.016;2024-03-02T02:00:40;97642.19;;;2.71;82.34
65718;BME280;52445;52.466;-1.016;2024-03-02T02:03:07;97645.53;;;2.76;81.91
65718;BME280;52445;52.466;-1.016;2024-03-02T02:05:34;97639.56;;;2.76;82.01
65718;BME280;52445;52.466;-1.016;2024-03-02T02:08:01;97637.88;;;2.76;82.77
65718;BME280;52445;52.466;-1.016;2024-03-02T02:10:28;97634.50;;;2.73;82.87
65718;BME280;52445;52.466;-1.016;2024-03-02T02:12:55;97637.09;;;2.68;82.23
65718;BME280;52445;52.466;-1.016;2024-03-02T02:15:23;97633.75;;;2.63;83.55
65718;BME280;52445;52.466;-1.016;2024-03-02T02:17:50;97625.19;;;2.67;83.46
65718;BME280;52445;52.466;-1.016;2024-03-02T02:20:17;97632.00;;;2.68;83.23
65718;BME280;52445;52.466;-1.016;2024-03-02T02:23:02;97613.31;;;2.63;82.45
65718;BME280;52445;52.466;-1.016;2024-03-02T02:25:30;97608.09;;;2.72;82.97
65718;BME280;52445;52.466;-1.016;2024-03-02T02:27:57;97608.19;;;2.63;83.24
65718;BME280;52445;52.466;-1.016;2024-03-02T02:30:27;97603.00;;;2.69;82.27
65718;BME280;52445;52.466;-1.016;2024-03-02T02:32:55;97596.25;;;2.62;82.59
65718;BME280;52445;52.466;-1.016;2024-03-02T02:35:25;97594.56;;;2.61;82.73
65718;BME280;52445;52.466;-1.016;2024-03-02T02:37:53;97589.41;;;2.67;82.59
65718;BME280;52445;52.466;-1.016;2024-03-02T02:40:20;97587.66;;;2.69;82.54
65718;BME280;52445;52.466;-1.016;2024-03-02T02:42:47;97591.16;;;2.62;81.74
65718;BME280;52445;52.466;-1.016;2024-03-02T02:45:16;97580.91;;;2.65;82.54
65718;BME280;52445;52.466;-1.016;2024-03-02T02:47:44;97586.00;;;2.68;81.76
65718;BME280;52445;52.466;-1.016;2024-03-02T02:50:11;97580.88;;;2.69;81.29
65718;BME280;52445;52.466;-1.016;2024-03-02T02:52:40;97577.44;;;2.69;81.62
65718;BME280;52445;52.466;-1.016;2024-03-02T02:55:08;97571.47;;;2.70;81.93
65718;BME280;52445;52.466;-1.016;2024-03-02T02:57:37;97577.50;;;2.64;81.39
65718;BME280;52445;52.466;-1.016;2024-03-02T03:00:07;97580.84;;;2.71;81.43
65718;BME280;52445;52.466;-1.016;2024-03-02T03:02:42;97578.28;;;2.73;81.80
65718;BME280;52445;52.466;-1.016;2024-03-02T03:05:11;97587.66;;;2.69;81.03
65718;BME280;52445;52.466;-1.016;2024-03-02T03:07:40;97585.09;;;2.70;80.98
65718;BME280;52445;52.466;-1.016;2024-03-02T03:10:08;97587.66;;;2.72;81.38
65718;BME280;52445;52.466;-1.016;2024-03-02T03:12:36;97591.03;;;2.74;81.08
65718;BME280;52445;52.466;-1.016;2024-03-02T03:15:04;97583.38;;;2.74;81.47
65718;BME280;52445;52.466;-1.016;2024-03-02T03:17:33;97577.41;;;2.75;81.29
65718;BME280;52445;52.466;-1.016;2024-03-02T03:20:01;97591.03;;;2.74;80.75
65718;BME280;52445;52.466;-1.016;2024-03-02T03:22:30;97579.13;;;2.70;81.10
65718;BME280;52445;52.466;-1.016;2024-03-02T03:24:58;97574.03;;;2.70;81.97
65718;BME280;52445;52.466;-1.016;2024-03-02T03:27:26;97575.75;;;2.68;80.85
65718;BME280;52445;52.466;-1.016;2024-03-02T03:29:53;97580.00;;;2.67;80.91
65718;BME280;52445;52.466;-1.016;2024-03-02T03:32:21;97567.22;;;2.69;81.69
65718;BME280;52445;52.466;-1.016;2024-03-02T03:34:48;97570.63;;;2.69;81.32
65718;BME280;52445;52.466;-1.016;2024-03-02T03:37:15;97561.25;;;2.70;81.44
65718;BME280;52445;52.466;-1.016;2024-03-02T03:39:42;97562.13;;;2.69;80.96
65718;BME280;52445;52.466;-1.016;2024-03-02T03:42:08;97565.53;;;2.68;80.92
65718;BME280;52445;52.466;-1.016;2024-03-02T03:44:35;97560.47;;;2.62;80.97
65718;BME280;52445;52.466;-1.016;2024-03-02T03:47:02;97553.69;;;2.61;81.52
65718;BME280;52445;52.466;-1.016;2024-03-02T03:49:29;97557.13;;;2.58;82.05
65718;BME280;52445;52.466;-1.016;2024-03-02T03:51:55;97552.06;;;2.53;82.36
65718;BME280;52445;52.466;-1.016;2024-03-02T03:54:22;97543.53;;;2.54;82.32
65718;BME280;52445;52.466;-1.016;2024-03-02T03:56:49;97543.53;;;2.54;81.40
65718;BME280;52445;52.466;-1.016;2024-03-02T03:59:17;97545.25;;;2.52;82.26
65718;BME280;52445;52.466;-1.016;2024-03-02T04:01:43;97550.38;;;2.52;82.31
65718;BME280;52445;52.466;-1.016;2024-03-02T04:04:10;97546.94;;;2.53;81.90
65718;BME280;52445;52.466;-1.016;2024-03-02T04:06:37;97544.41;;;2.50;81.19
65718;BME280;52445;52.466;-1.016;2024-03-02T04:09:05;97542.72;;;2.49;82.38
65718;BME280;52445;52.466;-1.016;2024-03-02T04:11:31;97547.84;;;2.48;81.22
65718;BME280;52445;52.466;-1.016;2024-03-02T04:13:58;97546.16;;;2.48;81.67
65718;BME280;52445;52.466;-1.016;2024-03-02T04:16:25;97553.84;;;2.45;82.09
65718;BME280;52445;52.466;-1.016;2024-03-02T04:18:52;97548.72;;;2.45;81.50
65718;BME280;52445;52.466;-1.016;2024-03-02T04:21:18;97551.28;;;2.47;82.47
65718;BME280;52445;52.466;-1.016;2024-03-02T04:23:45;97547.06;;;2.44;82.75
65718;BME280;52445;52.466;-1.016;2024-03-02T04:26:12;97543.66;;;2.42;82.66
65718;BME280;52445;52.466;-1.016;2024-03-02T04:28:39;97543.66;;;2.40;82.42
65718;BME280;52445;52.466;-1.016;2024-03-02T04:31:06;97549.63;;;2.42;83.08
65718;BME280;52445;52.466;-1.016;2024-03-02T04:33:33;97539.38;;;2.47;82.19
65718;BME280;52445;52.466;-1.016;2024-03-02T04:36:00;97544.41;;;2.50;82.38
65718;BME280;52445;52.466;-1.016;2024-03-02T04:38:27;97536.81;;;2.47;83.06
65718;BME280;52445;52.466;-1.016;2024-03-02T04:40:56;97545.28;;;2.49;83.08
65718;BME280;52445;52.466;-1.016;2024-03-02T04:43:23;97541.88;;;2.49;83.72
65718;BME280;52445;52.466;-1.016;2024-03-02T04:45:49;97541.03;;;2.50;83.88
65718;BME280;52445;52.466;-1.016;2024-03-02T04:48:16;97540.13;;;2.55;84.08
65718;BME280;52445;52.466;-1.016;2024-03-02T04:50:46;97539.31;;;2.49;84.82
65718;BME280;52445;52.466;-1.016;2024-03-02T04:53:13;97539.31;;;2.50;83.86
65718;BME280;52445;52.466;-1.016;2024-03-02T04:55:40;97544.38;;;2.53;83.43
65718;BME280;52445;52.466;-1.016;2024-03-02T04:58:16;97538.50;;;2.45;84.15
65718;BME280;52445;52.466;-1.016;2024-03-02T05:00:44;97543.56;;;2.51;84.79
65718;BME280;52445;52.466;-1.016;2024-03-02T05:03:13;97541.78;;;2.60;83.61
65718;BME280;52445;52.466;-1.016;2024-03-02T05:05:40;97534.91;;;2.65;84.44
65718;BME280;52445;52.466;-1.016;2024-03-02T05:08:08;97538.28;;;2.67;84.17
65718;BME280;52445;52.466;-1.016;2024-03-02T05:10:38;97531.44;;;2.69;84.27
65718;BME280;52445;52.466;-1.016;2024-03-02T05:13:05;97532.31;;;2.68;84.06
65718;BME280;52445;52.466;-1.016;2024-03-02T05:15:32;97533.09;;;2.73;83.21
65718;BME280;52445;52.466;-1.016;2024-03-02T05:17:58;97529.63;;;2.77;83.06
65718;BME280;52445;52.466;-1.016;2024-03-02T05:20:26;97546.78;;;2.69;83.92
65718;BME280;52445;52.466;-1.016;2024-03-02T05:22:53;97544.19;;;2.70;84.73
65718;BME280;52445;52.466;-1.016;2024-03-02T05:25:19;97536.56;;;2.69;84.27
65718;BME280;52445;52.466;-1.016;2024-03-02T05:27:46;97534.84;;;2.69;83.99
65718;BME280;52445;52.466;-1.016;2024-03-02T05:30:14;97539.91;;;2.74;83.94
65718;BME280;52445;52.466;-1.016;2024-03-02T05:32:41;97535.66;;;2.72;84.69
65718;BME280;52445;52.466;-1.016;2024-03-02T05:35:08;97546.78;;;2.69;84.65
65718;BME280;52445;52.466;-1.016;2024-03-02T05:37:35;97536.56;;;2.66;84.98
65718;BME280;52445;52.466;-1.016;2024-03-02T05:40:02;97537.50;;;2.60;85.02
65718;BME280;52445;52.466;-1.016;2024-03-02T05:42:29;97533.97;;;2.72;84.45
65718;BME280;52445;52.466;-1.016;2024-03-02T05:44:55;97527.06;;;2.77;83.81
65718;BME280;52445;52.466;-1.016;2024-03-02T05:47:22;97521.88;;;2.85;83.52
65718;BME280;52445;52.466;-1.016;2024-03-02T05:49:49;97529.53;;;2.87;84.13
65718;BME280;52445;52.466;-1.016;2024-03-02T05:52:15;97534.56;;;2.93;83.99
65718;BME280;52445;52.466;-1.016;2024-03-02T05:54:42;97539.66;;;2.96;83.66
65718;BME280;52445;52.466;-1.016;2024-03-02T05:57:09;97532.84;;;2.95;83.57
65718;BME280;52445;52.466;-1.016;2024-03-02T05:59:48;97531.91;;;3.01;83.17
65718;BME280;52445;52.466;-1.016;2024-03-02T06:02:16;97524.25;;;2.99;83.51
65718;BME280;52445;52.466;-1.016;2024-03-02T06:04:43;97512.28;;;3.01;83.35
65718;BME280;52445;52.466;-1.016;2024-03-02T06:07:09;97517.41;;;3.01;83.05
65718;BME280;52445;52.466;-1.016;2024-03-02T06:09:36;97507.19;;;3.01;83.67
65718;BME280;52445;52.466;-1.016;2024-03-02T06:12:06;97509.72;;;3.01;83.71
65718;BME280;52445;52.466;-1.016;2024-03-02T06:14:33;97508.94;;;2.99;83.33
65718;BME280;52445;52.466;-1.016;2024-03-02T06:17:01;97507.25;;;2.98;83.60
65718;BME280;52445;52.466;-1.016;2024-03-02T06:19:28;97510.75;;;2.91;83.84
65718;BME280;52445;52.466;-1.016;2024-03-02T06:21:54;97514.22;;;2.83;83.96
65718;BME280;52445;52.466;-1.016;2024-03-02T06:24:21;97515.03;;;2.86;84.43
65718;BME280;52445;52.466;-1.016;2024-03-02T06:26:48;97513.41;;;2.81;85.38
65718;BME280;52445;52.466;-1.016;2024-03-02T06:29:14;97507.31;;;2.92;85.07
65718;BME280;52445;52.466;-1.016;2024-03-02T06:31:41;97503.78;;;3.01;84.36
65718;BME280;52445;52.466;-1.016;2024-03-02T06:34:08;97502.16;;;2.95;84.59
65718;BME280;52445;52.466;-1.016;2024-03-02T06:36:35;97488.63;;;2.87;85.68
65718;BME280;52445;52.466;-1.016;2024-03-02T06:39:02;97495.41;;;2.91;85.15
65718;BME280;52445;52.466;-1.016;2024-03-02T06:41:28;97490.31;;;2.89;84.83
65718;BME280;52445;52.466;-1.016;2024-03-02T06:43:55;97495.31;;;2.97;84.24
65718;BME280;52445;52.466;-1.016;2024-03-02T06:46:26;97479.97;;;2.97;84.64
65718;BME280;52445;52.466;-1.016;2024-03-02T06:48:54;97483.41;;;2.94;84.41
65718;BME280;52445;52.466;-1.016;2024-03-02T06:51:21;97475.75;;;2.93;85.41
65718;BME280;52445;52.466;-1.016;2024-03-02T06:53:48;97471.38;;;3.01;84.43
65718;BME280;52445;52.466;-1.016;2024-03-02T06:56:15;97467.97;;;3.02;84.58
65718;BME280;52445;52.466;-1.016;2024-03-02T06:58:42;97473.91;;;3.03;85.17
65718;BME280;52445;52.466;-1.016;2024-03-02T07:01:10;97468.72;;;3.09;85.42
65718;BME280;52445;52.466;-1.016;2024-03-02T07:03:37;97466.09;;;3.14;85.33
65718;BME280;52445;52.466;-1.016;2024-03-02T07:06:06;97469.47;;;3.16;85.30
65718;BME280;52445;52.466;-1.016;2024-03-02T07:08:33;97468.59;;;3.17;85.31
65718;BME280;52445;52.466;-1.016;2024-03-02T07:11:00;97466.03;;;3.17;85.00
65718;BME280;52445;52.466;-1.016;2024-03-02T07:13:27;97460.94;;;3.17;85.96
65718;BME280;52445;52.466;-1.016;2024-03-02T07:15:54;97452.25;;;3.27;85.34
65718;BME280;52445;52.466;-1.016;2024-03-02T07:18:40;97452.19;;;3.33;84.88
65718;BME280;52445;52.466;-1.016;2024-03-02T07:21:08;97448.69;;;3.38;84.87
65718;BME280;52445;52.466;-1.016;2024-03-02T07:23:35;97440.16;;;3.39;84.84
65718;BME280;52445;52.466;-1.016;2024-03-02T07:26:02;97446.94;;;3.40;84.91
65718;BME280;52445;52.466;-1.016;2024-03-02T07:28:32;97446.19;;;3.34;85.25
65718;BME280;52445;52.466;-1.016;2024-03-02T07:31:01;97446.94;;;3.40;85.25
65718;BME280;52445;52.466;-1.016;2024-03-02T07:33:28;97438.34;;;3.44;84.51
65718;BME280;52445;52.466;-1.016;2024-03-02T07:35:55;97451.06;;;3.49;84.41
65718;BME280;52445;52.466;-1.016;2024-03-02T07:38:23;97449.41;;;3.46;84.91
65718;BME280;52445;52.466;-1.016;2024-03-02T07:40:49;97454.56;;;3.44;85.40
65718;BME280;52445;52.466;-1.016;2024-03-02T07:43:18;97452.81;;;3.48;85.50
65718;BME280;52445;52.466;-1.016;2024-03-02T07:45:46;97454.41;;;3.54;84.62
65718;BME280;52445;52.466;-1.016;2024-03-02T07:48:13;97451.75;;;3.60;84.63
65718;BME280;52445;52.466;-1.016;2024-03-02T07:50:40;97463.78;;;3.56;85.14
65718;BME280;52445;52.466;-1.016;2024-03-02T07:53:06;97459.63;;;3.49;85.63
65718;BME280;52445;52.466;-1.016;2024-03-02T07:55:34;97457.63;;;3.65;85.37
65718;BME280;52445;52.466;-1.016;2024-03-02T07:58:01;97461.88;;;3.68;85.25
65718;BME280;52445;52.466;-1.016;2024-03-02T08:00:28;97467.00;;;3.68;85.72
65718;BME280;52445;52.466;-1.016;2024-03-02T08:02:55;97473.00;;;3.65;85.67
65718;BME280;52445;52.466;-1.016;2024-03-02T08:05:22;97457.63;;;3.65;85.67
65718;BME280;52445;52.466;-1.016;2024-03-02T08:07:49;97466.94;;;3.69;85.67
65718;BME280;52445;52.466;-1.016;2024-03-02T08:10:19;97463.44;;;3.75;85.63
65718;BME280;52445;52.466;-1.016;2024-03-02T08:12:46;97460.13;;;3.70;85.78
65718;BME280;52445;52.466;-1.016;2024-03-02T08:15:13;97472.91;;;3.71;86.53
65718;BME280;52445;52.466;-1.016;2024-03-02T08:17:40;97460.97;;;3.70;86.64
65718;BME280;52445;52.466;-1.016;2024-03-02T08:20:15;97466.06;;;3.73;86.26
65718;BME280;52445;52.466;-1.016;2024-03-02T08:22:42;97454.88;;;3.79;86.22
65718;BME280;52445;52.466;-1.016;2024-03-02T08:25:09;97469.31;;;3.82;86.61
65718;BME280;52445;52.466;-1.016;2024-03-02T08:27:36;97464.22;;;3.80;86.34
65718;BME280;52445;52.466;-1.016;2024-03-02T08:30:03;97470.09;;;3.85;86.90
65718;BME280;52445;52.466;-1.016;2024-03-02T08:32:33;97474.41;;;3.85;86.72
65718;BME280;52445;52.466;-1.016;2024-03-02T08:35:00;97477.72;;;3.90;87.30
65718;BME280;52445;52.466;-1.016;2024-03-02T08:37:27;97474.19;;;3.97;87.70
65718;BME280;52445;52.466;-1.016;2024-03-02T08:39:54;97480.81;;;4.08;86.89
65718;BME280;52445;52.466;-1.016;2024-03-02T08:42:21;97480.75;;;4.13;86.90
65718;BME280;52445;52.466;-1.016;2024-03-02T08:44:49;97483.25;;;4.16;86.71
65718;BME280;52445;52.466;-1.016;2024-03-02T08:47:16;97481.34;;;4.27;86.23
65718;BME280;52445;52.466;-1.016;2024-03-02T08:49:43;97479.56;;;4.29;86.48
65718;BME280;52445;52.466;-1.016;2024-03-02T08:52:11;97484.53;;;4.39;86.44
65718;BME280;52445;52.466;-1.016;2024-03-02T08:54:39;97486.94;;;4.46;86.18
65718;BME280;52445;52.466;-1.016;2024-03-02T08:57:06;97485.16;;;4.52;85.60
65718;BME280;52445;52.466;-1.016;2024-03-02T08:59:33;97483.38;;;4.54;85.69
65718;BME280;52445;52.466;-1.016;2024-03-02T09:02:00;97487.59;;;4.56;85.69
65718;BME280;52445;52.466;-1.016;2024-03-02T09:04:27;97496.09;;;4.60;85.06
65718;BME280;52445;52.466;-1.016;2024-03-02T09:07:00;97489.19;;;4.63;84.77
65718;BME280;52445;52.466;-1.016;2024-03-02T09:09:27;97495.22;;;4.61;85.05
65718;BME280;52445;52.466;-1.016;2024-03-02T09:11:54;97501.00;;;4.71;84.99
65718;BME280;52445;52.466;-1.016;2024-03-02T09:14:24;97486.56;;;4.67;84.48
65718;BME280;52445;52.466;-1.016;2024-03-02T09:16:51;97499.31;;;4.70;84.75
65718;BME280;52445;52.466;-1.016;2024-03-02T09:19:17;97494.94;;;4.75;84.85
65718;BME280;52445;52.466;-1.016;2024-03-02T09:21:45;97495.81;;;4.74;84.00
65718;BME280;52445;52.466;-1.016;2024-03-02T09:24:13;97497.44;;;4.78;83.84
65718;BME280;52445;52.466;-1.016;2024-03-02T09:26:43;97486.19;;;4.85;83.45
65718;BME280;52445;52.466;-1.016;2024-03-02T09:29:10;97493.88;;;4.85;84.48
65718;BME280;52445;52.466;-1.016;2024-03-02T09:31:40;97499.00;;;4.85;83.87
65718;BME280;52445;52.466;-1.016;2024-03-02T09:34:08;97493.69;;;4.95;85.07
65718;BME280;52445;52.466;-1.016;2024-03-02T09:36:34;97500.31;;;5.05;83.86
65718;BME280;52445;52.466;-1.016;2024-03-02T09:39:01;97492.44;;;5.13;84.12
65718;BME280;52445;52.466;-1.016;2024-03-02T09:41:30;97501.81;;;5.16;82.91
65718;BME280;52445;52.466;-1.016;2024-03-02T09:43:58;97505.03;;;5.24;83.63
65718;BME280;52445;52.466;-1.016;2024-03-02T09:46:26;97495.59;;;5.24;83.31
65718;BME280;52445;52.466;-1.016;2024-03-02T09:48:53;97500.72;;;5.26;83.35
65718;BME280;52445;52.466;-1.016;2024-03-02T09:51:20;97495.75;;;5.18;82.51
65718;BME280;52445;52.466;-1.016;2024-03-02T09:53:47;97498.34;;;5.17;83.17
65718;BME280;52445;52.466;-1.016;2024-03-02T09:56:14;97500.97;;;5.13;81.66
65718;BME280;52445;52.466;-1.016;2024-03-02T09:58:42;97496.75;;;5.12;82.62
65718;BME280;52445;52.466;-1.016;2024-03-02T10:01:10;97508.56;;;5.20;82.45
65718;BME280;52445;52.466;-1.016;2024-03-02T10:03:37;97502.47;;;5.24;82.77
65718;BME280;52445;52.466;-1.016;2024-03-02T10:06:27;97506.50;;;5.34;82.87
65718;BME280;52445;52.466;-1.016;2024-03-02T10:08:54;97503.50;;;5.55;83.03
65718;BME280;52445;52.466;-1.016;2024-03-02T10:11:30;97502.09;;;5.77;81.97
65718;BME280;52445;52.466;-1.016;2024-03-02T10:16:44;97500.56;;;6.72;81.18
65718;BME280;52445;52.466;-1.016;2024-03-02T10:19:20;97503.53;;;7.46;80.30
65718;BME280;52445;52.466;-1.016;2024-03-02T10:21:48;97501.94;;;8.23;78.04
65718;BME280;52445;52.466;-1.016;2024-03-02T10:24:17;97506.28;;;8.96;77.38
65718;BME280;52445;52.466;-1.016;2024-03-02T10:26:46;97503.97;;;9.35;73.83
65718;BME280;52445;52.466;-1.016;2024-03-02T10:29:13;97506.38;;;9.62;71.35
65718;BME280;52445;52.466;-1.016;2024-03-02T10:31:41;97514.13;;;9.62;71.76
65718;BME280;52445;52.466;-1.016;2024-03-02T10:34:09;97510.47;;;9.45;70.24
65718;BME280;52445;52.466;-1.016;2024-03-02T10:36:41;97512.31;;;9.19;69.38
65718;BME280;52445;52.466;-1.016;2024-03-02T10:39:09;97513.34;;;8.91;69.01
65718;BME280;52445;52.466;-1.016;2024-03-02T10:41:38;97518.94;;;8.55;69.22
65718;BME280;52445;52.466;-1.016;2024-03-02T10:44:06;97512.16;;;8.27;70.62
65718;BME280;52445;52.466;-1.016;2024-03-02T10:46:36;97515.59;;;8.00;70.24
65718;BME280;52445;52.466;-1.016;2024-03-02T10:49:04;97527.16;;;7.88;70.51
65718;BME280;52445;52.466;-1.016;2024-03-02T10:51:34;97521.41;;;7.80;70.95
65718;BME280;52445;52.466;-1.016;2024-03-02T10:54:04;97520.19;;;7.90;71.95
65718;BME280;52445;52.466;-1.016;2024-03-02T10:56:34;97517.13;;;7.79;71.01
65718;BME280;52445;52.466;-1.016;2024-03-02T10:59:45;97523.88;;;7.54;70.06
65718;BME280;52445;52.466;-1.016;2024-03-02T11:02:12;97527.53;;;7.49;71.93
65718;BME280;52445;52.466;-1.016;2024-03-02T11:04:43;97528.69;;;7.38;71.37
65718;BME280;52445;52.466;-1.016;2024-03-02T11:07:13;97528.78;;;7.35;72.24
65718;BME280;52445;52.466;-1.016;2024-03-02T11:09:44;97527.88;;;7.36;72.49
65718;BME280;52445;52.466;-1.016;2024-03-02T11:12:19;97522.88;;;7.31;72.75
65718;BME280;52445;52.466;-1.016;2024-03-02T11:14:50;97520.34;;;7.30;73.09
65718;BME280;52445;52.466;-1.016;2024-03-02T11:17:18;97538.03;;;7.12;73.29
65718;BME280;52445;52.466;-1.016;2024-03-02T11:19:47;97531.13;;;6.82;74.11
65718;BME280;52445;52.466;-1.016;2024-03-02T11:22:15;97538.53;;;6.63;74.10
65718;BME280;52445;52.466;-1.016;2024-03-02T11:24:51;97547.41;;;6.51;75.54
65718;BME280;52445;52.466;-1.016;2024-03-02T11:33:08;97550.88;;;6.82;76.79
65718;BME280;52445;52.466;-1.016;2024-03-02T11:35:43;97549.91;;;6.86;76.08
65718;BME280;52445;52.466;-1.016;2024-03-02T11:38:13;97555.31;;;6.77;76.38
65718;BME280;52445;52.466;-1.016;2024-03-02T11:40:40;97566.66;;;6.69;75.48
65718;BME280;52445;52.466;-1.016;2024-03-02T11:43:07;97564.19;;;6.65;75.61
65718;BME280;52445;52.466;-1.016;2024-03-02T11:45:36;97566.06;;;6.60;75.84
65718;BME280;52445;52.466;-1.016;2024-03-02T11:48:08;97557.97;;;6.74;76.94
65718;BME280;52445;52.466;-1.016;2024-03-02T11:53:19;97560.97;;;6.56;74.51
65718;BME280;52445;52.466;-1.016;2024-03-02T11:55:49;97556.63;;;6.60;73.42
65718;BME280;52445;52.466;-1.016;2024-03-02T11:58:16;97561.03;;;6.55;74.29
65718;BME280;52445;52.466;-1.016;2024-03-02T12:00:47;97557.53;;;6.58;74.85
65718;BME280;52445;52.466;-1.016;2024-03-02T12:03:14;97557.00;;;6.46;72.12
65718;BME280;52445;52.466;-1.016;2024-03-02T12:05:42;97568.44;;;6.33;71.50
65718;BME280;52445;52.466;-1.016;2024-03-02T12:08:09;97566.09;;;6.58;72.82
65718;BME280;52445;52.466;-1.016;2024-03-02T12:10:38;97562.53;;;6.96;72.25
65718;BME280;52445;52.466;-1.016;2024-03-02T12:13:06;97562.53;;;7.26;70.31
65718;BME280;52445;52.466;-1.016;2024-03-02T12:15:35;97566.63;;;7.33;67.38
65718;BME280;52445;52.466;-1.016;2024-03-02T12:18:04;97554.97;;;7.19;67.39
65718;BME280;52445;52.466;-1.016;2024-03-02T12:20:33;97560.50;;;7.07;69.54
65718;BME280;52445;52.466;-1.016;2024-03-02T12:23:01;97568.75;;;6.87;68.88
65718;BME280;52445;52.466;-1.016;2024-03-02T12:25:30;97571.88;;;6.66;67.34
65718;BME280;52445;52.466;-1.016;2024-03-02T12:27:58;97562.91;;;6.48;68.13
65718;BME280;52445;52.466;-1.016;2024-03-02T12:30:29;97575.75;;;6.50;69.43
65718;BME280;52445;52.466;-1.016;2024-03-02T12:32:57;97574.69;;;6.57;69.96
65718;BME280;52445;52.466;-1.016;2024-03-02T12:35:24;97579.19;;;6.49;70.00
65718;BME280;52445;52.466;-1.016;2024-03-02T12:37:52;97577.66;;;6.41;69.95
65718;BME280;52445;52.466;-1.016;2024-03-02T12:40:20;97582.78;;;6.43;70.02
65718;BME280;52445;52.466;-1.016;2024-03-02T12:42:49;97585.28;;;6.46;70.31
65718;BME280;52445;52.466;-1.016;2024-03-02T12:45:17;97588.44;;;6.56;70.49
65718;BME280;52445;52.466;-1.016;2024-03-02T12:47:50;97587.47;;;6.60;70.13
65718;BME280;52445;52.466;-1.016;2024-03-02T12:50:19;97598.00;;;6.51;69.56
65718;BME280;52445;52.466;-1.016;2024-03-02T12:52:54;97597.09;;;6.53;69.35
65718;BME280;52445;52.466;-1.016;2024-03-02T12:55:22;97598.81;;;6.53;68.64
65718;BME280;52445;52.466;-1.016;2024-03-02T12:57:51;97588.75;;;6.43;67.62
65718;BME280;52445;52.466;-1.016;2024-03-02T13:00:21;97598.09;;;6.48;69.22
65718;BME280;52445;52.466;-1.016;2024-03-02T13:02:49;97599.19;;;6.37;68.39
65718;BME280;52445;52.466;-1.016;2024-03-02T13:05:18;97606.91;;;6.37;67.95
65718;BME280;52445;52.466;-1.016;2024-03-02T13:07:47;97599.22;;;6.36;68.22
65718;BME280;52445;52.466;-1.016;2024-03-02T13:10:14;97606.91;;;6.37;68.29
65718;BME280;52445;52.466;-1.016;2024-03-02T13:12:42;97600.25;;;6.28;69.13
65718;BME280;52445;52.466;-1.016;2024-03-02T13:15:09;97602.16;;;6.22;68.76
65718;BME280;52445;52.466;-1.016;2024-03-02T13:17:44;97599.59;;;6.22;69.03